Time;durP1;ratioP1;P1;durP2;ratioP2;P2;SDS_P1;SDS_P2;PMS_P1;PMS_P2;Temp;Humidity;BMP_temperature;BMP_pressure;BME280_temperature;BME280_humidity;BME280_pressure;Samples;Min_cycle;Max_cycle;Signal;HPM_P1;HPM_P2
2021/08/15 00:00:38;;;;;;;0.00;0.00;;;18.80;74.00;;;;;;4993212;28;20446;-89
2021/08/15 00:03:04;;;;;;;0.00;0.00;;;18.80;74.10;;;;;;4993102;28;20138;-89
2021/08/15 00:05:30;;;;;;;0.10;0.10;;;18.80;74.20;;;;;;4993041;28;20141;-89
2021/08/15 00:07:55;;;;;;;0.10;0.10;;;18.80;74.30;;;;;;4993085;28;20026;-89
2021/08/15 00:10:21;;;;;;;0.08;0.08;;;18.80;74.40;;;;;;4993043;28;20037;-89
2021/08/15 00:12:47;;;;;;;0.10;0.10;;;18.80;74.40;;;;;;4993056;28;20495;-89
2021/08/15 00:15:14;;;;;;;0.00;0.00;;;18.80;74.40;;;;;;4992995;28;20039;-89
2021/08/15 00:17:41;;;;;;;0.10;0.10;;;18.70;74.40;;;;;;4992879;28;20062;-89
2021/08/15 00:20:11;;;;;;;0.00;0.00;;;18.70;74.50;;;;;;4992891;28;20031;-89
2021/08/15 00:22:41;;;;;;;0.03;0.03;;;18.70;74.60;;;;;;4993230;28;20121;-89
2021/08/15 00:25:09;;;;;;;0.00;0.00;;;18.70;74.70;;;;;;4993008;28;20066;-89
2021/08/15 00:27:35;;;;;;;0.10;0.10;;;18.70;74.70;;;;;;4994257;28;20026;-89
2021/08/15 00:30:02;;;;;;;0.10;0.10;;;18.70;74.80;;;;;;4992922;28;20084;-89
2021/08/15 00:32:28;;;;;;;0.05;0.05;;;18.70;74.80;;;;;;4992846;28;20113;-89
2021/08/15 00:34:54;;;;;;;0.00;0.00;;;18.70;74.80;;;;;;4993038;28;20117;-89
2021/08/15 00:37:20;;;;;;;0.10;0.10;;;18.60;74.80;;;;;;4992719;28;20038;-89
2021/08/15 00:39:45;;;;;;;0.00;0.00;;;18.60;74.80;;;;;;4994082;28;20042;-89
2021/08/15 00:42:11;;;;;;;0.10;0.10;;;18.60;74.90;;;;;;4993927;28;20022;-89
2021/08/15 00:44:37;;;;;;;0.00;0.00;;;18.60;74.90;;;;;;4996943;28;20041;-89
2021/08/15 00:47:06;;;;;;;0.00;0.00;;;18.60;75.10;;;;;;5006977;28;20026;-89
2021/08/15 00:49:32;;;;;;;0.00;0.00;;;18.50;75.20;;;;;;4992681;28;20424;-89
2021/08/15 00:51:58;;;;;;;0.10;0.10;;;18.50;75.30;;;;;;4992638;28;20037;-89
2021/08/15 00:54:23;;;;;;;0.00;0.00;;;18.40;75.40;;;;;;4992731;28;20045;-89
2021/08/15 00:56:50;;;;;;;0.00;0.00;;;18.40;75.40;;;;;;4992608;28;20088;-89
2021/08/15 00:59:18;;;;;;;0.00;0.00;;;18.40;75.40;;;;;;4992632;28;20034;-89
2021/08/15 01:01:44;;;;;;;0.00;0.00;;;18.30;75.50;;;;;;4992586;28;20030;-89
2021/08/15 01:04:10;;;;;;;0.10;0.10;;;18.20;75.40;;;;;;4992459;28;20365;-89
2021/08/15 01:06:38;;;;;;;0.10;0.10;;;18.20;75.50;;;;;;4992737;28;20041;-89
2021/08/15 01:09:06;;;;;;;0.10;0.10;;;18.10;75.50;;;;;;4992676;28;20073;-89
2021/08/15 01:11:36;;;;;;;0.10;0.10;;;18.10;75.70;;;;;;4997497;28;20018;-89
2021/08/15 01:14:06;;;;;;;0.10;0.10;;;18.00;75.90;;;;;;4996213;28;20026;-89
2021/08/15 01:16:32;;;;;;;0.10;0.10;;;18.00;76.10;;;;;;4996101;28;20377;-89
2021/08/15 01:18:58;;;;;;;0.10;0.10;;;17.90;76.20;;;;;;4996017;28;20023;-89
2021/08/15 01:21:25;;;;;;;0.00;0.00;;;17.90;76.30;;;;;;4996000;28;20037;-89
2021/08/15 01:23:51;;;;;;;0.00;0.00;;;17.90;76.50;;;;;;4997283;28;20026;-89
2021/08/15 01:26:19;;;;;;;0.00;0.00;;;17.80;76.60;;;;;;4996359;28;20038;-89
2021/08/15 01:28:45;;;;;;;0.08;0.08;;;17.80;76.80;;;;;;4997499;28;20027;-89
2021/08/15 01:31:12;;;;;;;0.10;0.10;;;17.70;76.90;;;;;;4995992;28;20391;-89
2021/08/15 01:33:39;;;;;;;0.10;0.10;;;17.70;77.10;;;;;;4995939;28;20026;-89
2021/08/15 01:36:06;;;;;;;0.10;0.10;;;17.70;77.30;;;;;;4995839;28;20041;-89
2021/08/15 01:38:35;;;;;;;0.00;0.00;;;17.60;77.50;;;;;;4995776;28;20033;-89
2021/08/15 01:41:01;;;;;;;0.08;0.08;;;17.60;77.80;;;;;;4995982;28;20034;-89
2021/08/15 01:43:28;;;;;;;0.10;0.10;;;17.60;78.00;;;;;;4995721;28;20023;-89
2021/08/15 01:45:54;;;;;;;0.00;0.00;;;17.60;78.00;;;;;;4999383;28;20488;-89
2021/08/15 01:48:20;;;;;;;0.10;0.10;;;17.50;78.20;;;;;;5016305;28;20098;-89
2021/08/15 01:50:47;;;;;;;0.00;0.00;;;17.50;78.40;;;;;;4995876;28;20031;-89
2021/08/15 01:53:19;;;;;;;0.10;0.10;;;17.50;78.60;;;;;;4995518;28;20521;-89
2021/08/15 01:55:45;;;;;;;0.10;0.10;;;17.40;78.80;;;;;;4995688;28;20030;-89
2021/08/15 01:58:12;;;;;;;0.10;0.10;;;17.40;79.00;;;;;;4995540;28;20233;-89
2021/08/15 02:00:43;;;;;;;0.10;0.10;;;17.40;79.10;;;;;;4996119;28;20034;-89
2021/08/15 02:03:10;;;;;;;0.10;0.10;;;17.40;79.30;;;;;;4996586;28;20121;-89
2021/08/15 02:05:37;;;;;;;0.10;0.10;;;17.30;79.30;;;;;;4995118;28;20411;-89
2021/08/15 02:08:04;;;;;;;0.00;0.00;;;17.30;79.50;;;;;;4995230;28;20181;-89
2021/08/15 02:10:31;;;;;;;0.03;0.03;;;17.30;79.70;;;;;;4996721;28;20031;-89
2021/08/15 02:12:58;;;;;;;0.00;0.00;;;17.30;79.90;;;;;;4995199;28;20062;-89
2021/08/15 02:15:24;;;;;;;0.00;0.00;;;17.20;80.00;;;;;;4995173;28;20030;-89
2021/08/15 02:17:50;;;;;;;0.05;0.05;;;17.20;80.20;;;;;;4994939;28;20045;-89
2021/08/15 02:20:18;;;;;;;0.00;0.00;;;17.20;80.30;;;;;;4995841;28;20046;-89
2021/08/15 02:22:45;;;;;;;0.10;0.10;;;17.20;80.40;;;;;;4995646;28;20398;-89
2021/08/15 02:25:13;;;;;;;0.05;0.05;;;17.20;80.60;;;;;;4995228;28;20058;-89
2021/08/15 02:27:40;;;;;;;0.00;0.00;;;17.20;80.80;;;;;;5003770;28;20041;-89
2021/08/15 02:30:08;;;;;;;0.10;0.10;;;17.10;80.90;;;;;;5003804;28;20030;-89
2021/08/15 02:32:35;;;;;;;0.00;0.00;;;17.10;81.00;;;;;;4996208;28;20026;-89
2021/08/15 02:35:01;;;;;;;0.10;0.10;;;17.10;81.20;;;;;;4994923;28;20034;-89
2021/08/15 02:37:26;;;;;;;0.10;0.10;;;17.10;81.40;;;;;;4994791;28;20042;-89
2021/08/15 02:39:53;;;;;;;0.10;0.10;;;17.10;81.40;;;;;;4994631;28;20034;-89
2021/08/15 02:42:19;;;;;;;0.10;0.10;;;17.10;81.60;;;;;;4994634;28;20029;-89
2021/08/15 02:44:45;;;;;;;0.10;0.10;;;17.10;81.70;;;;;;4994535;28;20034;-89
2021/08/15 02:47:11;;;;;;;0.10;0.10;;;17.00;81.80;;;;;;4996034;28;20041;-90
2021/08/15 02:49:40;;;;;;;0.00;0.00;;;17.00;82.40;;;;;;5009495;28;20023;-88
2021/08/15 02:52:07;;;;;;;0.00;0.00;;;16.90;82.80;;;;;;4997409;28;20121;-89
2021/08/15 02:54:34;;;;;;;0.05;0.05;;;16.90;83.30;;;;;;4994403;28;20472;-89
2021/08/15 02:56:59;;;;;;;0.10;0.10;;;16.90;83.50;;;;;;4995511;28;20046;-89
2021/08/15 02:59:25;;;;;;;0.10;0.10;;;16.90;83.50;;;;;;4994323;28;20499;-89
2021/08/15 03:01:51;;;;;;;0.00;0.00;;;17.00;83.80;;;;;;4995093;28;20542;-89
2021/08/15 03:04:17;;;;;;;0.00;0.00;;;17.00;83.70;;;;;;4994127;28;20027;-89
2021/08/15 03:06:42;;;;;;;0.00;0.00;;;17.10;84.30;;;;;;4994348;28;20602;-89
2021/08/15 03:09:09;;;;;;;0.10;0.10;;;17.10;83.70;;;;;;4993925;28;20499;-89
2021/08/15 03:11:34;;;;;;;0.10;0.10;;;17.10;83.60;;;;;;4994002;28;20029;-89
2021/08/15 03:14:00;;;;;;;0.03;0.03;;;17.20;83.90;;;;;;4994030;28;20026;-89
2021/08/15 03:16:26;;;;;;;0.10;0.10;;;17.20;83.90;;;;;;4995076;28;20452;-89
2021/08/15 03:18:52;;;;;;;0.10;0.10;;;17.20;84.00;;;;;;4993970;28;20062;-89
2021/08/15 03:21:18;;;;;;;0.10;0.10;;;17.30;84.00;;;;;;4995445;28;20121;-89
2021/08/15 03:23:43;;;;;;;0.10;0.10;;;17.30;84.10;;;;;;4993780;28;20037;-89
2021/08/15 03:26:10;;;;;;;0.10;0.10;;;17.40;84.20;;;;;;4993868;28;20030;-89
2021/08/15 03:28:37;;;;;;;0.10;0.10;;;17.40;84.20;;;;;;4995155;28;20025;-89
2021/08/15 03:31:03;;;;;;;0.00;0.00;;;17.40;84.20;;;;;;4993838;28;20388;-89
2021/08/15 03:33:29;;;;;;;0.10;0.10;;;17.50;84.20;;;;;;4993207;28;20391;-89
2021/08/15 03:35:55;;;;;;;0.10;0.10;;;17.60;84.30;;;;;;4993987;28;20030;-89
2021/08/15 03:38:21;;;;;;;0.10;0.10;;;17.60;84.30;;;;;;4993564;28;20118;-89
2021/08/15 03:40:46;;;;;;;0.10;0.10;;;17.70;84.10;;;;;;4993558;28;20471;-89
2021/08/15 03:43:12;;;;;;;0.03;0.03;;;17.80;84.10;;;;;;4993447;28;20081;-89
2021/08/15 03:45:39;;;;;;;0.10;0.10;;;17.90;84.10;;;;;;4994096;28;20061;-89
2021/08/15 03:48:08;;;;;;;0.10;0.10;;;18.00;84.00;;;;;;4993380;28;20073;-89
2021/08/15 03:50:34;;;;;;;0.10;0.10;;;18.00;83.70;;;;;;4993427;28;20030;-89
2021/08/15 03:52:59;;;;;;;0.10;0.10;;;18.10;83.50;;;;;;4993282;28;20147;-89
2021/08/15 03:55:25;;;;;;;0.10;0.10;;;18.30;83.40;;;;;;4993612;28;20435;-89
2021/08/15 03:57:51;;;;;;;0.10;0.10;;;18.30;83.00;;;;;;4993182;28;20041;-89
2021/08/15 04:00:17;;;;;;;0.10;0.10;;;18.50;83.00;;;;;;4993313;28;20043;-89
2021/08/15 04:02:43;;;;;;;0.00;0.00;;;18.60;82.80;;;;;;5013633;28;20052;-89
2021/08/15 04:05:09;;;;;;;0.10;0.10;;;18.80;82.50;;;;;;5014576;28;20042;-89
2021/08/15 04:07:35;;;;;;;0.10;0.10;;;18.90;81.90;;;;;;4993069;28;20034;-89
2021/08/15 04:10:02;;;;;;;0.08;0.08;;;19.10;81.50;;;;;;4975518;28;20035;-89
2021/08/15 04:12:29;;;;;;;0.10;0.10;;;19.20;81.20;;;;;;4993983;28;20018;-89
2021/08/15 04:14:55;;;;;;;0.00;0.00;;;19.40;80.70;;;;;;4991815;28;20439;-89
2021/08/15 04:17:21;;;;;;;0.10;0.10;;;19.50;80.50;;;;;;4993486;28;20092;-89
2021/08/15 04:19:47;;;;;;;0.10;0.10;;;19.60;80.00;;;;;;4993385;28;20022;-90
2021/08/15 04:22:13;;;;;;;0.10;0.10;;;19.70;79.60;;;;;;4998259;28;20026;-90
2021/08/15 04:24:39;;;;;;;0.10;0.10;;;19.80;79.30;;;;;;4994982;28;20044;-90
2021/08/15 04:27:14;;;;;;;0.00;0.00;;;19.90;79.00;;;;;;4993664;28;20027;-89
2021/08/15 04:29:40;;;;;;;0.00;0.00;;;20.00;78.70;;;;;;4994009;28;20034;-90
2021/08/15 04:32:07;;;;;;;0.00;0.00;;;20.10;78.50;;;;;;4994743;28;20110;-90
2021/08/15 04:34:33;;;;;;;0.10;0.10;;;20.20;78.30;;;;;;4993660;28;20031;-89
2021/08/15 04:36:59;;;;;;;0.00;0.00;;;20.30;78.00;;;;;;4995118;28;20042;-88
2021/08/15 04:39:24;;;;;;;0.00;0.00;;;20.40;77.90;;;;;;4993101;28;20127;-88
2021/08/15 04:41:50;;;;;;;0.00;0.00;;;20.50;77.90;;;;;;4994557;28;20037;-89
2021/08/15 04:44:16;;;;;;;0.00;0.00;;;20.60;77.70;;;;;;4995299;28;20113;-89
2021/08/15 04:46:42;;;;;;;0.10;0.10;;;20.70;77.60;;;;;;4998389;28;20369;-89
2021/08/15 04:49:07;;;;;;;0.10;0.10;;;20.80;77.40;;;;;;4997616;28;20026;-89
2021/08/15 04:51:33;;;;;;;0.00;0.00;;;20.90;77.50;;;;;;4998856;28;20030;-89
2021/08/15 04:54:17;;;;;;;0.00;0.00;;;20.90;77.30;;;;;;4998703;28;20026;-89
2021/08/15 04:56:42;;;;;;;0.10;0.10;;;21.20;77.00;;;;;;4997014;28;20070;-89
2021/08/15 04:59:08;;;;;;;0.00;0.00;;;21.30;77.10;;;;;;4999451;28;20060;-90
2021/08/15 05:01:34;;;;;;;0.00;0.00;;;21.50;76.80;;;;;;4999007;28;20026;-89
2021/08/15 05:03:59;;;;;;;0.10;0.10;;;21.70;76.60;;;;;;4997001;28;20022;-89
2021/08/15 05:06:26;;;;;;;0.00;0.00;;;21.90;76.60;;;;;;4997912;28;20502;-90
2021/08/15 05:08:52;;;;;;;0.00;0.00;;;22.30;76.90;;;;;;4999217;28;20034;-90
2021/08/15 05:11:18;;;;;;;0.10;0.10;;;22.80;76.50;;;;;;4996696;28;20030;-91
2021/08/15 05:13:44;;;;;;;0.10;0.10;;;23.40;76.00;;;;;;4996256;28;20027;-91
2021/08/15 05:16:10;;;;;;;0.00;0.00;;;24.00;75.10;;;;;;4996205;28;20030;-90
2021/08/15 05:18:36;;;;;;;0.00;0.00;;;24.70;73.20;;;;;;4996180;28;20034;-90
2021/08/15 05:21:02;;;;;;;0.00;0.00;;;25.20;72.00;;;;;;4996158;28;20034;-91
2021/08/15 05:23:27;;;;;;;0.00;0.00;;;25.60;70.90;;;;;;4996381;28;20441;-91
2021/08/15 05:25:53;;;;;;;0.00;0.00;;;26.00;70.10;;;;;;4996408;28;20387;-90
2021/08/15 05:28:27;;;;;;;0.00;0.00;;;26.40;68.90;;;;;;4998841;28;20030;-90
2021/08/15 05:30:52;;;;;;;;;;;26.90;67.40;;;;;;4997731;28;20027;-90
2021/08/15 05:33:18;;;;;;;0.00;0.00;;;27.20;66.90;;;;;;4998550;28;19933;-90
2021/08/15 05:35:44;;;;;;;0.00;0.00;;;27.60;67.10;;;;;;4997334;28;20053;-91
2021/08/15 05:38:10;;;;;;;0.00;0.00;;;28.10;66.10;;;;;;4999950;28;20384;-92
2021/08/15 05:40:35;;;;;;;0.05;0.05;;;28.40;65.00;;;;;;5000031;28;20026;-90
2021/08/15 05:43:01;;;;;;;0.00;0.00;;;28.70;64.00;;;;;;5000054;28;20026;-91
2021/08/15 05:45:28;;;;;;;0.00;0.00;;;29.00;63.40;;;;;;4998061;28;20037;-88
2021/08/15 05:47:54;;;;;;;0.00;0.00;;;29.30;62.50;;;;;;4998096;28;20031;-90
2021/08/15 05:50:20;;;;;;;0.00;0.00;;;29.60;61.90;;;;;;4997293;28;20053;-90
2021/08/15 05:52:46;;;;;;;0.00;0.00;;;29.90;60.30;;;;;;4997415;28;20073;-90
2021/08/15 05:55:27;;;;;;;0.00;0.00;;;30.10;59.40;;;;;;4999591;28;20027;-90
2021/08/15 05:57:53;;;;;;;0.00;0.00;;;30.30;57.40;;;;;;4999263;28;20046;-90
2021/08/15 06:00:19;;;;;;;0.00;0.00;;;30.50;57.60;;;;;;4997645;28;20030;-90
2021/08/15 06:02:45;;;;;;;0.00;0.00;;;30.90;56.90;;;;;;4999116;28;20094;-90
2021/08/15 06:05:12;;;;;;;0.00;0.00;;;31.30;55.50;;;;;;5000455;28;20064;-90
2021/08/15 06:07:38;;;;;;;0.00;0.00;;;31.50;54.50;;;;;;4998513;28;20086;-89
2021/08/15 06:10:05;;;;;;;0.00;0.00;;;31.60;54.20;;;;;;4996334;28;20034;-90
2021/08/15 06:12:31;;;;;;;0.00;0.00;;;31.90;53.90;;;;;;4997106;28;20030;-89
2021/08/15 06:14:57;;;;;;;0.00;0.00;;;32.20;52.30;;;;;;4996888;28;20084;-89
2021/08/15 06:17:23;;;;;;;0.00;0.00;;;32.40;51.70;;;;;;4997361;28;20038;-90
2021/08/15 06:19:48;;;;;;;0.00;0.00;;;32.70;51.30;;;;;;4997526;28;20038;-90
2021/08/15 06:22:14;;;;;;;0.00;0.00;;;33.10;50.00;;;;;;4997228;28;20029;-90
2021/08/15 06:24:40;;;;;;;0.00;0.00;;;33.20;48.70;;;;;;4997499;28;20388;-91
2021/08/15 06:27:06;;;;;;;0.00;0.00;;;33.50;48.90;;;;;;4996412;28;20054;-90
2021/08/15 06:29:32;;;;;;;0.00;0.00;;;33.70;46.80;;;;;;4999100;28;20084;-90
2021/08/15 06:31:58;;;;;;;0.00;0.00;;;33.80;47.00;;;;;;4997514;28;20065;-92
2021/08/15 06:34:23;;;;;;;0.00;0.00;;;34.10;46.60;;;;;;4997890;28;20034;-90
2021/08/15 06:36:49;;;;;;;0.00;0.00;;;34.20;46.00;;;;;;4997834;28;20045;-90
2021/08/15 06:39:15;;;;;;;0.00;0.00;;;34.40;45.40;;;;;;4998911;28;20029;-91
2021/08/15 06:41:41;;;;;;;0.00;0.00;;;34.70;45.30;;;;;;4996306;28;20022;-90
2021/08/15 06:44:07;;;;;;;0.00;0.00;;;35.20;45.20;;;;;;4997626;28;20049;-94
2021/08/15 06:46:33;;;;;;;0.00;0.00;;;35.50;44.30;;;;;;4998801;28;20054;-90
2021/08/15 06:48:59;;;;;;;0.00;0.00;;;35.60;43.60;;;;;;4997355;28;20506;-90
2021/08/15 06:51:25;;;;;;;0.00;0.00;;;35.70;44.00;;;;;;4996959;28;20026;-91
2021/08/15 06:54:16;;;;;;;0.00;0.00;;;35.90;42.80;;;;;;4997751;28;20032;-91
2021/08/15 06:56:42;;;;;;;0.00;0.00;;;36.00;41.20;;;;;;4998032;28;20049;-90
2021/08/15 06:59:07;;;;;;;0.00;0.00;;;36.10;42.70;;;;;;4996217;28;20018;-91
2021/08/15 07:01:33;;;;;;;0.00;0.00;;;36.40;42.60;;;;;;4996734;28;20034;-91
2021/08/15 07:03:59;;;;;;;0.00;0.00;;;36.60;41.80;;;;;;4996638;28;20033;-90
2021/08/15 07:06:25;;;;;;;0.10;0.10;;;36.60;41.40;;;;;;4979699;28;20030;-90
2021/08/15 07:08:51;;;;;;;0.10;0.10;;;36.90;41.60;;;;;;4997065;28;20022;-91
2021/08/15 07:11:17;;;;;;;0.00;0.00;;;37.20;40.30;;;;;;4995215;28;20125;-92
2021/08/15 07:13:42;;;;;;;0.08;0.08;;;37.00;40.40;;;;;;4994261;28;20418;-90
2021/08/15 07:16:08;;;;;;;0.00;0.00;;;36.90;40.90;;;;;;4994286;28;20034;-90
2021/08/15 07:18:34;;;;;;;0.00;0.00;;;36.90;40.90;;;;;;4994222;28;20066;-90
2021/08/15 07:21:02;;;;;;;0.00;0.00;;;37.20;40.90;;;;;;4994769;28;20080;-92
2021/08/15 07:23:28;;;;;;;0.10;0.10;;;37.60;40.90;;;;;;4994393;28;20085;-92
2021/08/15 07:25:54;;;;;;;0.10;0.10;;;38.20;40.70;;;;;;4994037;28;20034;-91
2021/08/15 07:28:20;;;;;;;0.10;0.10;;;38.80;40.10;;;;;;4995126;28;20038;-90
2021/08/15 07:30:45;;;;;;;0.10;0.10;;;39.20;39.40;;;;;;4993862;28;20061;-90
2021/08/15 07:33:11;;;;;;;0.10;0.10;;;39.20;39.00;;;;;;4993647;28;20164;-91
2021/08/15 07:35:38;;;;;;;0.10;0.10;;;39.30;38.80;;;;;;4993701;28;20027;-92
2021/08/15 07:38:06;;;;;;;0.10;0.10;;;39.20;38.60;;;;;;4994935;28;20041;-94
2021/08/15 07:40:32;;;;;;;0.00;0.00;;;39.20;38.60;;;;;;4995925;28;20022;-91
2021/08/15 07:42:58;;;;;;;0.10;0.10;;;39.20;38.20;;;;;;4997583;28;20396;-90
2021/08/15 07:45:29;;;;;;;0.08;0.08;;;39.40;38.40;;;;;;4994676;28;20026;-92
2021/08/15 07:47:55;;;;;;;0.10;0.10;;;39.70;38.20;;;;;;4994072;28;20560;-92
2021/08/15 07:50:21;;;;;;;0.10;0.10;;;40.00;38.00;;;;;;4993452;28;20027;-90
2021/08/15 07:52:47;;;;;;;0.10;0.10;;;40.40;37.80;;;;;;4993605;28;20054;-92
2021/08/15 07:55:13;;;;;;;0.10;0.10;;;40.50;37.50;;;;;;4993122;28;20030;-90
2021/08/15 07:57:39;;;;;;;0.10;0.10;;;40.80;37.40;;;;;;4993127;28;20046;-90
2021/08/15 08:00:07;;;;;;;0.10;0.10;;;41.10;37.20;;;;;;4993555;28;20029;-91
2021/08/15 08:02:36;;;;;;;0.10;0.10;;;41.10;36.80;;;;;;4999441;28;20120;-91
2021/08/15 08:05:02;;;;;;;0.10;0.10;;;41.20;36.50;;;;;;4997738;28;20113;-92
2021/08/15 08:07:28;;;;;;;0.10;0.10;;;41.30;36.80;;;;;;4994357;28;20077;-94
2021/08/15 08:09:54;;;;;;;0.10;0.10;;;41.60;36.70;;;;;;4994260;28;20038;-91
2021/08/15 08:12:21;;;;;;;0.10;0.10;;;41.70;36.20;;;;;;4993956;28;20027;-90
2021/08/15 08:14:48;;;;;;;0.10;0.10;;;41.50;35.80;;;;;;4993009;28;20057;-89
2021/08/15 08:17:15;;;;;;;0.10;0.10;;;41.40;36.10;;;;;;4994838;28;20065;-90
2021/08/15 08:19:42;;;;;;;0.10;0.10;;;41.40;36.10;;;;;;4996011;28;20030;-91
2021/08/15 08:22:08;;;;;;;0.10;0.10;;;41.70;36.20;;;;;;5003683;23;20127;-91
2021/08/15 08:24:34;;;;;;;0.10;0.10;;;41.70;35.50;;;;;;4993283;28;20034;-91
2021/08/15 08:27:00;;;;;;;0.10;0.10;;;42.00;35.80;;;;;;4992934;28;20096;-91
2021/08/15 08:29:27;;;;;;;0.10;0.10;;;42.40;35.80;;;;;;4998876;28;20022;-92
2021/08/15 08:31:53;;;;;;;0.10;0.10;;;42.60;35.70;;;;;;4998644;28;20498;-92
2021/08/15 08:34:19;;;;;;;0.10;0.10;;;42.60;35.10;;;;;;4995028;28;20026;-92
2021/08/15 08:36:44;;;;;;;0.10;0.10;;;42.30;35.40;;;;;;4993725;28;20056;-90
2021/08/15 08:39:10;;;;;;;0.10;0.10;;;42.30;35.40;;;;;;4994736;28;20023;-92
2021/08/15 08:41:38;;;;;;;0.10;0.10;;;42.50;35.40;;;;;;4996571;28;20402;-92
2021/08/15 08:44:08;;;;;;;0.10;0.10;;;42.90;35.10;;;;;;4993994;28;20455;-91
2021/08/15 08:46:35;;;;;;;0.10;0.10;;;42.90;35.00;;;;;;4996455;28;20042;-91
2021/08/15 08:49:01;;;;;;;0.15;0.15;;;42.90;34.90;;;;;;4994445;28;20032;-90
2021/08/15 08:51:27;;;;;;;0.10;0.10;;;42.70;34.70;;;;;;4994221;28;20127;-91
2021/08/15 08:53:54;;;;;;;0.10;0.10;;;42.30;34.50;;;;;;4994267;28;20027;-91
2021/08/15 08:56:23;;;;;;;0.10;0.10;;;42.50;34.40;;;;;;4993286;28;20045;-91
2021/08/15 08:58:50;;;;;;;0.10;0.10;;;42.70;34.60;;;;;;4993704;28;20480;-91
2021/08/15 09:01:17;;;;;;;0.10;0.10;;;42.90;34.70;;;;;;4995468;28;20042;-91
2021/08/15 09:03:44;;;;;;;0.10;0.10;;;43.40;34.40;;;;;;4994304;28;20105;-90
2021/08/15 09:06:24;;;;;;;0.20;0.20;;;43.80;34.20;;;;;;5002240;28;20023;-91
2021/08/15 09:08:51;;;;;;;0.20;0.20;;;44.20;33.40;;;;;;4995630;28;20030;-91
2021/08/15 09:11:25;;;;;;;0.20;0.20;;;44.70;33.60;;;;;;4993428;28;20088;-90
2021/08/15 09:14:10;;;;;;;0.20;0.20;;;45.30;33.40;;;;;;4997326;28;20023;-90
2021/08/15 09:16:52;;;;;;;0.20;0.20;;;45.40;33.20;;;;;;4993600;28;20046;-91
2021/08/15 09:19:44;;;;;;;0.20;0.20;;;45.60;32.60;;;;;;4997048;28;20496;-92
2021/08/15 09:22:25;;;;;;;0.10;0.10;;;45.30;32.20;;;;;;4993313;28;20043;-92
2021/08/15 09:25:11;;;;;;;0.20;0.20;;;44.40;33.10;;;;;;4992889;28;20033;-91
2021/08/15 09:27:45;;;;;;;0.20;0.20;;;44.00;33.30;;;;;;4992426;28;20372;-91
2021/08/15 09:30:12;;;;;;;0.20;0.20;;;44.20;33.70;;;;;;4994529;28;20114;-92
2021/08/15 09:32:43;;;;;;;0.20;0.20;;;44.60;33.70;;;;;;4997752;28;20037;-91
2021/08/15 09:35:09;;;;;;;0.20;0.20;;;44.70;33.30;;;;;;4996561;28;20077;-92
2021/08/15 09:37:36;;;;;;;0.20;0.20;;;44.70;33.40;;;;;;4998772;28;20400;-92
2021/08/15 09:40:31;;;;;;;0.20;0.20;;;45.20;33.20;;;;;;4997087;28;20599;-91
2021/08/15 09:42:58;;;;;;;0.20;0.20;;;45.90;33.30;;;;;;4996564;28;20064;-90
2021/08/15 09:45:49;;;;;;;0.20;0.20;;;46.10;33.00;;;;;;4996828;28;20166;-91
2021/08/15 09:48:17;;;;;;;0.20;0.20;;;46.10;32.40;;;;;;4996216;28;20110;-92
2021/08/15 09:51:21;;;;;;;0.20;0.20;;;46.10;32.80;;;;;;4995747;28;20026;-91
2021/08/15 09:54:07;;;;;;;0.20;0.20;;;46.20;32.70;;;;;;4995563;28;20035;-91
2021/08/15 09:56:39;;;;;;;0.20;0.20;;;46.60;32.70;;;;;;4995366;28;20121;-91
2021/08/15 09:59:25;;;;;;;0.20;0.20;;;47.10;32.70;;;;;;4997202;28;20042;-90
2021/08/15 10:01:52;;;;;;;0.20;0.20;;;47.30;32.20;;;;;;4996597;28;20034;-90
2021/08/15 10:04:19;;;;;;;0.20;0.20;;;47.10;32.10;;;;;;4998073;28;20022;-92
2021/08/15 10:06:53;;;;;;;0.20;0.20;;;47.00;32.30;;;;;;4996754;28;20038;-91
2021/08/15 10:09:20;;;;;;;0.30;0.30;;;47.20;32.10;;;;;;4997670;28;20022;-92
2021/08/15 10:11:46;;;;;;;0.30;0.30;;;47.20;32.10;;;;;;4998489;28;20045;-90
2021/08/15 10:14:13;;;;;;;0.30;0.30;;;47.30;31.80;;;;;;4996001;28;20489;-92
2021/08/15 10:16:48;;;;;;;0.20;0.20;;;47.00;31.90;;;;;;4998269;28;20035;-92
2021/08/15 10:19:19;;;;;;;0.22;0.20;;;46.80;31.40;;;;;;4997308;28;20035;-91
2021/08/15 10:21:47;;;;;;;0.20;0.20;;;46.30;31.60;;;;;;4996179;28;20034;-90
2021/08/15 10:24:15;;;;;;;0.20;0.20;;;46.30;31.70;;;;;;4996698;28;20035;-94
2021/08/15 10:26:46;;;;;;;0.20;0.20;;;46.30;31.80;;;;;;4996080;28;20026;-92
2021/08/15 10:29:45;;;;;;;0.25;0.25;;;46.40;31.70;;;;;;4997211;28;20027;-92
2021/08/15 10:32:22;;;;;;;0.22;0.22;;;46.60;31.20;;;;;;4996959;28;20042;-93
2021/08/15 10:34:50;;;;;;;0.20;0.20;;;46.60;31.40;;;;;;4997554;28;20491;-91
2021/08/15 10:37:25;;;;;;;0.20;0.20;;;46.60;31.60;;;;;;4997257;28;20046;-91
2021/08/15 10:40:05;;;;;;;0.20;0.20;;;46.80;31.30;;;;;;4996333;28;20022;-91
2021/08/15 10:42:41;;;;;;;0.20;0.20;;;47.10;31.20;;;;;;4997315;28;20124;-92
2021/08/15 10:45:10;;;;;;;0.30;0.30;;;47.20;31.30;;;;;;4995465;28;20026;-91
2021/08/15 10:47:37;;;;;;;0.30;0.30;;;47.40;31.30;;;;;;4996935;28;20023;-91
2021/08/15 10:50:05;;;;;;;0.20;0.20;;;47.40;30.80;;;;;;4996076;28;20058;-91
2021/08/15 10:52:34;;;;;;;0.30;0.30;;;47.40;30.90;;;;;;4996715;28;20029;-92
2021/08/15 10:55:04;;;;;;;0.20;0.20;;;47.40;31.10;;;;;;4997052;28;20419;-91
2021/08/15 10:57:49;;;;;;;0.30;0.30;;;47.90;31.10;;;;;;4995665;28;20030;-92
2021/08/15 11:00:30;;;;;;;0.30;0.30;;;48.20;30.40;;;;;;4995615;28;20112;-91
2021/08/15 11:02:57;;;;;;;0.30;0.30;;;48.50;30.90;;;;;;4997248;28;20502;-95
2021/08/15 11:05:37;;;;;;;0.30;0.30;;;48.70;31.00;;;;;;4995273;28;20039;-91
2021/08/15 11:08:05;;;;;;;0.30;0.30;;;48.80;30.70;;;;;;4997465;28;20031;-91
2021/08/15 11:11:06;;;;;;;0.30;0.30;;;48.70;30.40;;;;;;4994868;28;20138;-90
2021/08/15 11:13:34;;;;;;;0.30;0.30;;;48.10;30.20;;;;;;4971654;28;20030;-94
2021/08/15 11:16:25;;;;;;;0.30;0.30;;;47.50;30.80;;;;;;4994548;28;20042;-92
2021/08/15 11:19:09;;;;;;;0.30;0.30;;;47.40;30.80;;;;;;4995132;28;20089;-92
2021/08/15 11:22:03;;;;;;;0.22;0.22;;;47.60;30.90;;;;;;4995485;28;20085;-91
2021/08/15 11:24:35;;;;;;;0.30;0.30;;;47.50;30.70;;;;;;4996269;28;20153;-91
2021/08/15 11:27:01;;;;;;;;;;;47.30;30.60;;;;;;4979225;28;20038;-92
2021/08/15 11:29:27;;;;;;;0.20;0.20;;;46.90;30.60;;;;;;4995928;28;20341;-93
2021/08/15 11:31:54;;;;;;;0.28;0.28;;;47.10;31.00;;;;;;4995564;28;20068;-92
2021/08/15 11:34:20;;;;;;;0.20;0.20;;;47.70;30.90;;;;;;4993819;28;20040;-92
2021/08/15 11:37:00;;;;;;;0.30;0.30;;;48.00;30.90;;;;;;4994843;28;20559;-93
2021/08/15 11:39:29;;;;;;;0.30;0.30;;;48.30;30.60;;;;;;4995674;28;20022;-93
2021/08/15 11:41:57;;;;;;;0.20;0.20;;;48.30;30.50;;;;;;4996764;28;20050;-94
2021/08/15 11:44:23;;;;;;;0.30;0.30;;;47.80;30.40;;;;;;4996553;28;20026;-90
2021/08/15 11:46:48;;;;;;;0.20;0.20;;;47.10;30.60;;;;;;4993889;28;20125;-90
2021/08/15 11:49:34;;;;;;;0.20;0.20;;;46.30;31.30;;;;;;4994883;28;20028;-91
2021/08/15 11:52:23;;;;;;;0.20;0.20;;;46.20;30.90;;;;;;4995677;28;20045;-91
2021/08/15 11:54:50;;;;;;;0.20;0.20;;;46.10;31.50;;;;;;4993791;28;20037;-90
2021/08/15 11:57:16;;;;;;;0.20;0.20;;;46.20;31.30;;;;;;4993658;28;20046;-92
2021/08/15 11:59:45;;;;;;;0.20;0.20;;;46.20;31.40;;;;;;4992685;28;20129;-92
2021/08/15 12:02:19;;;;;;;0.20;0.20;;;46.40;31.50;;;;;;4994631;28;20061;-92
2021/08/15 12:04:47;;;;;;;0.20;0.20;;;46.70;31.10;;;;;;4994421;28;20031;-90
2021/08/15 12:07:19;;;;;;;0.20;0.20;;;46.50;31.10;;;;;;4995688;28;20129;-92
2021/08/15 12:09:45;;;;;;;0.20;0.20;;;46.40;31.00;;;;;;4994076;28;20023;-92
2021/08/15 12:12:12;;;;;;;0.20;0.20;;;46.30;30.90;;;;;;4994947;28;20031;-93
2021/08/15 12:14:42;;;;;;;0.20;0.20;;;46.20;31.30;;;;;;4994491;28;20041;-93
2021/08/15 12:17:08;;;;;;;0.20;0.20;;;46.10;31.40;;;;;;4993308;28;20093;-91
2021/08/15 12:19:35;;;;;;;0.20;0.20;;;46.00;31.50;;;;;;4993721;28;20109;-92
2021/08/15 12:22:15;;;;;;;0.20;0.20;;;46.20;31.40;;;;;;4994071;28;20039;-91
2021/08/15 12:24:43;;;;;;;0.17;0.17;;;46.50;31.30;;;;;;4994643;28;20110;-91
2021/08/15 12:27:10;;;;;;;0.20;0.20;;;46.70;31.40;;;;;;4993116;28;20031;-92
2021/08/15 12:29:44;;;;;;;0.20;0.20;;;47.10;31.40;;;;;;4994340;28;20065;-91
2021/08/15 12:32:18;;;;;;;0.20;0.20;;;47.40;31.30;;;;;;4994688;28;20040;-91
2021/08/15 12:34:57;;;;;;;0.20;0.20;;;47.70;31.40;;;;;;4994583;28;20028;-92
2021/08/15 12:37:25;;;;;;;0.20;0.20;;;48.10;31.30;;;;;;4993721;28;20038;-90
2021/08/15 12:40:01;;;;;;;0.20;0.20;;;48.20;30.80;;;;;;4993707;28;20022;-91
2021/08/15 12:42:28;;;;;;;0.20;0.20;;;48.30;30.70;;;;;;4995521;28;20111;-90
2021/08/15 12:45:00;;;;;;;0.20;0.20;;;47.90;30.40;;;;;;4994369;28;20065;-91
2021/08/15 12:47:37;;;;;;;0.10;0.10;;;47.50;30.50;;;;;;4993923;28;20546;-92
2021/08/15 12:50:11;;;;;;;0.20;0.20;;;47.20;30.90;;;;;;4993793;28;20034;-90
2021/08/15 12:53:02;;;;;;;0.20;0.20;;;47.00;30.80;;;;;;4993113;28;20025;-91
2021/08/15 12:55:33;;;;;;;0.10;0.10;;;46.90;30.60;;;;;;4991897;28;20034;-92